createdAt,value
2023-03-26T00:01:40.474Z,9.70
2023-03-26T00:04:07.500Z,9.60
2023-03-26T00:06:38.872Z,9.60
2023-03-26T00:09:10.521Z,9.60
2023-03-26T00:11:37.425Z,9.60
2023-03-26T00:14:05.427Z,9.60
2023-03-26T00:16:32.648Z,9.60
2023-03-26T00:19:00.028Z,9.70
2023-03-26T00:21:28.197Z,9.70
2023-03-26T00:24:04.833Z,9.70
2023-03-26T00:26:35.292Z,9.70
2023-03-26T00:29:03.668Z,9.70
2023-03-26T00:31:30.856Z,9.70
2023-03-26T00:33:57.767Z,9.60
2023-03-26T00:36:27.850Z,9.60
2023-03-26T00:38:54.778Z,9.60
2023-03-26T00:41:31.050Z,9.70
2023-03-26T00:43:58.751Z,9.60
2023-03-26T00:46:26.268Z,9.60
2023-03-26T00:48:53.178Z,9.50
2023-03-26T00:51:20.770Z,9.50
2023-03-26T00:53:48.331Z,9.50
2023-03-26T00:56:15.200Z,9.50
2023-03-26T00:58:42.160Z,9.50
2023-03-26T01:01:14.330Z,9.50
2023-03-26T01:03:44.260Z,9.50
2023-03-26T01:06:19.785Z,9.50
2023-03-26T01:08:50.554Z,9.50
2023-03-26T01:11:25.932Z,9.50
2023-03-26T01:14:13.624Z,9.50
2023-03-26T01:16:49.885Z,9.60
2023-03-26T01:19:25.834Z,9.50
2023-03-26T01:21:52.723Z,9.50
2023-03-26T01:24:19.524Z,9.50
2023-03-26T01:26:49.109Z,9.40
2023-03-26T01:29:39.508Z,9.40
2023-03-26T01:32:40.996Z,9.50
2023-03-26T01:35:12.474Z,9.50
2023-03-26T01:38:11.348Z,9.40
2023-03-26T01:40:47.141Z,9.50
2023-03-26T01:43:33.186Z,9.50
2023-03-26T01:46:01.333Z,9.50
2023-03-26T01:48:33.747Z,9.50
2023-03-26T01:51:00.589Z,9.50
2023-03-26T01:53:27.494Z,9.50
2023-03-26T01:55:56.123Z,9.50
2023-03-26T01:58:51.227Z,9.60
2023-03-26T02:01:24.621Z,9.60
2023-03-26T02:03:55.480Z,9.50
2023-03-26T02:06:58.634Z,9.60
2023-03-26T02:09:27.603Z,9.50
2023-03-26T02:11:54.352Z,9.60
2023-03-26T02:14:21.110Z,9.60
2023-03-26T02:16:47.946Z,9.70
2023-03-26T02:19:21.938Z,9.70
2023-03-26T02:21:51.676Z,9.70
2023-03-26T02:24:19.291Z,9.80
2023-03-26T02:26:46.189Z,9.80
2023-03-26T02:29:14.006Z,9.90
2023-03-26T02:31:41.086Z,9.80
2023-03-26T02:34:07.929Z,9.90
2023-03-26T02:36:36.031Z,9.90
2023-03-26T02:39:03.524Z,9.90
2023-03-26T02:41:30.433Z,9.90
2023-03-26T02:43:57.197Z,9.90
2023-03-26T02:46:24.024Z,9.90
2023-03-26T02:48:50.981Z,9.80
2023-03-26T02:51:18.334Z,9.80
2023-03-26T02:53:45.799Z,9.80
2023-03-26T02:56:12.625Z,9.90
2023-03-26T02:58:39.434Z,9.90
2023-03-26T03:01:06.629Z,9.90
2023-03-26T03:03:34.597Z,9.90
2023-03-26T03:06:01.459Z,9.80
2023-03-26T03:08:29.262Z,9.80
2023-03-26T03:10:59.264Z,9.80
2023-03-26T03:13:26.341Z,9.80
2023-03-26T03:15:53.440Z,9.80
2023-03-26T03:18:20.473Z,9.80
2023-03-26T03:20:47.302Z,9.80
2023-03-26T03:23:14.224Z,9.80
2023-03-26T03:25:43.728Z,9.80
2023-03-26T03:28:11.180Z,9.80
2023-03-26T03:30:37.998Z,9.80
2023-03-26T03:33:06.139Z,9.80
2023-03-26T03:35:33.726Z,9.80
2023-03-26T03:38:00.935Z,9.80
2023-03-26T03:40:27.812Z,9.80
2023-03-26T03:42:54.728Z,9.80
2023-03-26T03:45:21.566Z,9.70
2023-03-26T03:47:48.526Z,9.80
2023-03-26T03:50:15.596Z,9.70
2023-03-26T03:52:42.379Z,9.70
2023-03-26T03:55:10.649Z,9.80
2023-03-26T03:57:37.539Z,9.80
2023-03-26T04:00:06.745Z,9.80
2023-03-26T04:02:35.183Z,9.80
2023-03-26T04:05:02.887Z,9.70
2023-03-26T04:07:33.246Z,9.70
2023-03-26T04:10:00.483Z,9.70
2023-03-26T04:12:28.449Z,9.70
2023-03-26T04:14:55.849Z,9.70
2023-03-26T04:17:23.036Z,9.70
2023-03-26T04:19:52.906Z,9.50
2023-03-26T04:22:19.941Z,9.60
2023-03-26T04:24:48.845Z,9.50
2023-03-26T04:27:17.812Z,9.60
2023-03-26T04:29:46.144Z,9.50
2023-03-26T04:32:26.558Z,9.40
2023-03-26T04:34:53.805Z,9.40
2023-03-26T04:37:26.596Z,9.30
2023-03-26T04:39:55.059Z,9.20
2023-03-26T04:42:22.361Z,9.20
2023-03-26T04:44:50.850Z,9.30
2023-03-26T04:47:18.362Z,9.30
2023-03-26T04:49:47.364Z,9.20
2023-03-26T04:52:14.470Z,9.20
2023-03-26T04:54:43.726Z,9.10
2023-03-26T04:57:18.472Z,9.10
2023-03-26T04:59:45.313Z,9.20
2023-03-26T05:02:13.047Z,9.20
2023-03-26T05:04:40.008Z,9.10
2023-03-26T05:07:07.473Z,9.10
2023-03-26T05:09:34.197Z,9.10
2023-03-26T05:12:01.142Z,9.00
2023-03-26T05:14:28.133Z,9.00
2023-03-26T05:16:55.068Z,9.10
2023-03-26T05:19:22.401Z,9.10
2023-03-26T05:21:49.172Z,9.10
2023-03-26T05:24:16.191Z,9.10
2023-03-26T05:26:43.286Z,9.00
2023-03-26T05:29:10.071Z,9.10
2023-03-26T05:31:37.909Z,9.10
2023-03-26T05:34:04.693Z,9.00
2023-03-26T05:36:31.487Z,9.00
2023-03-26T05:38:58.298Z,9.00
2023-03-26T05:41:25.416Z,9.00
2023-03-26T05:43:52.152Z,8.90
2023-03-26T05:46:20.393Z,9.00
2023-03-26T05:48:47.309Z,8.80
2023-03-26T05:51:15.681Z,8.80
2023-03-26T05:53:42.613Z,8.70
2023-03-26T05:56:09.645Z,8.70
2023-03-26T05:58:36.664Z,8.70
2023-03-26T06:01:05.783Z,8.80
2023-03-26T06:03:33.296Z,8.80
2023-03-26T06:06:00.486Z,8.80
2023-03-26T06:08:27.369Z,8.80
2023-03-26T06:11:01.146Z,8.80
2023-03-26T06:13:27.981Z,8.80
2023-03-26T06:15:54.899Z,8.80
2023-03-26T06:18:23.007Z,8.80
2023-03-26T06:20:49.916Z,8.70
2023-03-26T06:23:16.984Z,8.80
2023-03-26T06:25:45.626Z,8.80
2023-03-26T06:28:12.893Z,8.80
2023-03-26T06:30:40.207Z,8.80
2023-03-26T06:33:07.348Z,8.80
2023-03-26T06:35:34.196Z,8.80
2023-03-26T06:38:01.110Z,8.80
2023-03-26T06:40:28.981Z,8.80
2023-03-26T06:43:09.892Z,8.80
2023-03-26T06:45:37.480Z,8.80
2023-03-26T06:48:04.622Z,8.80
2023-03-26T06:50:32.306Z,8.80
2023-03-26T06:52:59.144Z,8.80
2023-03-26T06:55:25.992Z,8.80
2023-03-26T06:57:53.526Z,8.80
2023-03-26T07:00:21.194Z,8.80
2023-03-26T07:02:48.124Z,8.80
2023-03-26T07:05:15.677Z,8.80
2023-03-26T07:07:46.236Z,8.80
2023-03-26T07:10:14.286Z,8.70
2023-03-26T07:12:42.472Z,8.80
2023-03-26T07:15:10.437Z,8.80
2023-03-26T07:17:37.441Z,8.70
2023-03-26T07:20:05.810Z,8.80
2023-03-26T07:22:32.961Z,8.70
2023-03-26T07:24:59.955Z,8.70
2023-03-26T07:27:44.961Z,8.70
2023-03-26T07:30:17.239Z,8.60
2023-03-26T07:32:54.032Z,8.70
2023-03-26T07:35:22.637Z,8.60
2023-03-26T07:38:08.303Z,8.70
2023-03-26T07:40:47.042Z,8.70
2023-03-26T07:43:23.102Z,8.70
2023-03-26T07:45:50.450Z,8.70
2023-03-26T07:48:19.104Z,8.70
2023-03-26T07:50:46.384Z,8.70
2023-03-26T07:53:13.638Z,8.80
2023-03-26T07:55:57.524Z,8.80
2023-03-26T07:58:48.987Z,8.90
2023-03-26T08:01:38.354Z,8.90
2023-03-26T08:04:34.931Z,8.90
2023-03-26T08:07:28.725Z,8.90
2023-03-26T08:10:28.325Z,8.90
2023-03-26T08:13:00.142Z,8.90
2023-03-26T08:15:32.646Z,8.90
2023-03-26T08:18:27.319Z,8.80
2023-03-26T08:21:11.301Z,8.80
2023-03-26T08:24:00.180Z,8.80
2023-03-26T08:26:58.387Z,8.80
2023-03-26T08:29:45.326Z,8.80
2023-03-26T08:32:18.542Z,8.80
2023-03-26T08:34:46.196Z,8.70
2023-03-26T08:37:13.189Z,8.80
2023-03-26T08:39:42.076Z,8.80
2023-03-26T08:42:46.208Z,8.80
2023-03-26T08:45:31.377Z,8.90
2023-03-26T08:48:29.820Z,8.90
2023-03-26T08:51:17.021Z,8.90
2023-03-26T08:54:03.475Z,8.90
2023-03-26T08:56:43.737Z,8.90
2023-03-26T08:59:35.354Z,8.90
2023-03-26T09:02:17.152Z,8.90
2023-03-26T09:05:05.760Z,9.00
2023-03-26T09:07:41.306Z,9.10
2023-03-26T09:10:46.190Z,9.00
2023-03-26T09:13:31.849Z,9.00
2023-03-26T09:16:21.985Z,9.00
2023-03-26T09:19:12.813Z,9.10
2023-03-26T09:21:48.870Z,9.10
2023-03-26T09:24:41.041Z,9.20
2023-03-26T09:27:27.540Z,9.20
2023-03-26T09:30:36.313Z,9.30
2023-03-26T09:33:28.166Z,9.40
2023-03-26T09:36:19.789Z,9.50
2023-03-26T09:39:08.791Z,9.60
2023-03-26T09:42:13.173Z,9.60
2023-03-26T09:45:00.152Z,9.60
2023-03-26T09:47:55.329Z,9.70
2023-03-26T09:50:29.991Z,9.70
2023-03-26T09:53:34.323Z,9.80
2023-03-26T09:56:10.649Z,9.70
2023-03-26T09:58:56.913Z,9.70
2023-03-26T10:01:32.126Z,9.70
2023-03-26T10:03:59.021Z,9.70
2023-03-26T10:06:44.480Z,9.70
2023-03-26T10:09:18.353Z,9.70
2023-03-26T10:11:55.535Z,9.70
2023-03-26T10:14:34.761Z,9.80
2023-03-26T10:17:10.691Z,9.90
2023-03-26T10:19:46.323Z,10.10
2023-03-26T10:22:20.866Z,10.20
2023-03-26T10:25:02.761Z,10.40
2023-03-26T10:28:09.616Z,10.50
2023-03-26T10:30:45.734Z,10.50
2023-03-26T10:33:16.853Z,10.60
2023-03-26T10:36:08.483Z,10.70
2023-03-26T10:38:51.527Z,10.70
2023-03-26T10:41:35.520Z,10.70
2023-03-26T10:44:36.414Z,10.70
2023-03-26T10:47:15.269Z,10.60
2023-03-26T10:50:31.515Z,10.60
2023-03-26T10:53:07.186Z,10.40
2023-03-26T10:55:47.376Z,10.40
2023-03-26T10:58:19.203Z,10.30
2023-03-26T11:00:59.229Z,10.40
2023-03-26T11:03:54.834Z,10.50
2023-03-26T11:06:30.303Z,10.50
2023-03-26T11:09:08.146Z,10.50
2023-03-26T11:11:49.234Z,10.70
2023-03-26T11:14:34.470Z,10.70
2023-03-26T11:17:40.963Z,10.70
2023-03-26T11:20:21.502Z,10.60
2023-03-26T11:23:08.639Z,10.60
2023-03-26T11:25:38.894Z,10.60
2023-03-26T11:28:27.358Z,10.60
2023-03-26T11:31:00.623Z,10.70
2023-03-26T11:33:32.800Z,10.70
2023-03-26T11:36:03.061Z,10.60
2023-03-26T11:38:37.291Z,10.60
2023-03-26T11:41:04.827Z,10.70
2023-03-26T11:43:35.104Z,10.70
2023-03-26T11:46:07.443Z,10.70
2023-03-26T11:48:36.081Z,10.80
2023-03-26T11:51:07.473Z,11.00
2023-03-26T11:53:38.536Z,11.00
2023-03-26T11:56:14.965Z,11.20
2023-03-26T11:59:06.313Z,11.30
2023-03-26T12:01:50.403Z,11.30
2023-03-26T12:04:29.242Z,11.40
2023-03-26T12:06:59.708Z,11.40
2023-03-26T12:09:27.017Z,11.30
2023-03-26T12:11:57.115Z,11.20
2023-03-26T12:14:26.172Z,11.10
2023-03-26T12:17:11.881Z,11.00
2023-03-26T12:19:43.769Z,10.80
2023-03-26T12:22:36.270Z,10.70
2023-03-26T12:25:16.142Z,10.50
2023-03-26T12:27:49.754Z,10.50
2023-03-26T12:30:23.785Z,10.40
2023-03-26T12:32:53.049Z,10.30
2023-03-26T12:35:27.416Z,10.10
2023-03-26T12:37:55.072Z,10.10
2023-03-26T12:40:32.620Z,10.00
2023-03-26T12:44:55.186Z,10.00
2023-03-26T12:47:26.413Z,9.90
2023-03-26T12:48:41.629Z,9.90
2023-03-26T12:51:35.994Z,9.60
2023-03-26T12:54:24.822Z,9.60
2023-03-26T12:57:11.717Z,9.50
2023-03-26T12:59:58.832Z,9.60
2023-03-26T13:02:50.639Z,9.60
2023-03-26T13:05:48.924Z,9.70
2023-03-26T13:08:15.730Z,9.70
2023-03-26T13:11:29.785Z,9.70
2023-03-26T13:14:33.416Z,9.50
2023-03-26T13:17:37.170Z,9.50
2023-03-26T13:20:14.513Z,9.30
2023-03-26T13:22:52.974Z,9.30
2023-03-26T13:25:32.880Z,9.30
2023-03-26T13:28:08.794Z,9.40
2023-03-26T13:30:43.887Z,9.30
2023-03-26T13:33:38.443Z,9.30
2023-03-26T13:36:24.847Z,9.20
2023-03-26T13:39:13.284Z,9.10
2023-03-26T13:41:48.844Z,9.10
2023-03-26T13:44:49.614Z,9.00
2023-03-26T13:47:20.917Z,9.00
2023-03-26T13:49:49.299Z,9.00
2023-03-26T13:52:19.206Z,9.00
2023-03-26T13:54:52.310Z,8.90
2023-03-26T13:57:29.443Z,9.10
2023-03-26T14:00:06.819Z,9.20
2023-03-26T14:02:56.606Z,9.20
2023-03-26T14:05:39.611Z,9.20
2023-03-26T14:08:26.575Z,9.20
2023-03-26T14:11:11.027Z,9.20
2023-03-26T14:13:51.881Z,9.10
2023-03-26T14:16:41.311Z,9.10
2023-03-26T14:19:29.208Z,9.20
2023-03-26T14:22:18.352Z,9.10
2023-03-26T14:25:08.392Z,9.20
2023-03-26T14:27:41.143Z,9.20
2023-03-26T14:30:37.155Z,9.30
2023-03-26T14:33:27.345Z,9.40
2023-03-26T14:36:00.688Z,9.40
2023-03-26T14:38:39.341Z,9.50
2023-03-26T14:41:24.896Z,9.50
2023-03-26T14:44:25.960Z,9.40
2023-03-26T14:47:14.464Z,9.40
2023-03-26T14:49:51.922Z,9.40
2023-03-26T14:52:30.927Z,9.40
2023-03-26T14:54:58.934Z,9.30
2023-03-26T14:57:37.551Z,9.40
2023-03-26T15:00:42.933Z,9.40
2023-03-26T15:03:09.839Z,9.30
2023-03-26T15:05:46.451Z,9.40
2023-03-26T15:08:36.248Z,9.30
2023-03-26T15:11:18.179Z,9.30
2023-03-26T15:14:15.992Z,9.30
2023-03-26T15:17:01.282Z,9.30
2023-03-26T15:19:49.142Z,9.20
2023-03-26T15:22:53.943Z,9.40
2023-03-26T15:25:49.262Z,9.50
2023-03-26T15:28:47.144Z,9.60
2023-03-26T15:31:50.353Z,9.60
2023-03-26T15:34:42.421Z,9.50
2023-03-26T15:37:15.162Z,9.40
2023-03-26T15:40:13.041Z,9.50
2023-03-26T15:42:52.952Z,9.40
2023-03-26T15:45:46.311Z,9.40
2023-03-26T15:48:32.436Z,9.40
2023-03-26T15:51:13.186Z,9.40
2023-03-26T15:53:53.568Z,9.30
2023-03-26T15:56:25.608Z,9.40
2023-03-26T15:59:12.132Z,9.40
2023-03-26T16:01:46.318Z,9.30
2023-03-26T16:04:18.094Z,9.30
2023-03-26T16:07:03.645Z,9.40
2023-03-26T16:09:52.126Z,9.40
2023-03-26T16:12:45.646Z,9.40
2023-03-26T16:15:32.320Z,9.30
2023-03-26T16:18:19.239Z,9.10
2023-03-26T16:20:51.061Z,9.20
2023-03-26T16:24:03.001Z,9.10
2023-03-26T16:26:45.357Z,9.10
2023-03-26T16:29:18.723Z,9.10
2023-03-26T16:32:15.033Z,9.10
2023-03-26T16:35:10.241Z,9.10
2023-03-26T16:37:51.740Z,9.20
2023-03-26T16:40:18.712Z,9.20
2023-03-26T16:42:49.695Z,9.20
2023-03-26T16:45:27.161Z,9.20
2023-03-26T16:48:01.534Z,9.10
2023-03-26T16:50:43.708Z,9.00
2023-03-26T16:53:47.198Z,8.90
2023-03-26T16:56:21.436Z,8.90
2023-03-26T16:58:50.943Z,8.90
2023-03-26T17:01:21.395Z,8.80
2023-03-26T17:03:54.201Z,8.80
2023-03-26T17:06:45.854Z,8.80
2023-03-26T17:09:41.468Z,8.70
2023-03-26T17:12:29.128Z,8.70
2023-03-26T17:15:06.515Z,8.70
2023-03-26T17:17:36.872Z,8.60
2023-03-26T17:20:25.470Z,8.50
2023-03-26T17:22:58.663Z,8.50
2023-03-26T17:25:35.899Z,8.50
2023-03-26T17:28:17.696Z,8.50
2023-03-26T17:31:15.988Z,8.50
2023-03-26T17:33:43.158Z,8.50
2023-03-26T17:36:13.110Z,8.60
2023-03-26T17:38:39.993Z,8.60
2023-03-26T17:41:12.548Z,8.50
2023-03-26T17:43:46.592Z,8.50
2023-03-26T17:46:25.716Z,8.50
2023-03-26T17:49:14.271Z,8.50
2023-03-26T17:51:56.651Z,8.50
2023-03-26T17:54:29.283Z,8.50
2023-03-26T17:56:56.208Z,8.50
2023-03-26T17:59:25.556Z,8.50
2023-03-26T18:02:03.592Z,8.50
2023-03-26T18:04:37.947Z,8.40
2023-03-26T18:07:36.703Z,8.40
2023-03-26T18:10:16.932Z,8.40
2023-03-26T18:12:43.911Z,8.50
2023-03-26T18:15:22.670Z,8.40
2023-03-26T18:17:54.728Z,8.40
2023-03-26T18:20:28.823Z,8.40
2023-03-26T18:22:55.592Z,8.40
2023-03-26T18:25:28.709Z,8.40
2023-03-26T18:27:56.241Z,8.40
2023-03-26T18:30:23.540Z,8.40
2023-03-26T18:33:05.069Z,8.40
2023-03-26T18:35:43.455Z,8.30
2023-03-26T18:38:35.088Z,8.30
2023-03-26T18:41:03.296Z,8.20
2023-03-26T18:43:34.807Z,8.20
2023-03-26T18:46:03.429Z,8.10
2023-03-26T18:48:30.328Z,8.10
2023-03-26T18:51:01.147Z,8.10
2023-03-26T18:53:37.610Z,8.20
2023-03-26T18:56:38.976Z,8.20
2023-03-26T18:59:22.165Z,8.10
2023-03-26T19:01:48.971Z,8.10
2023-03-26T19:04:15.781Z,8.10
2023-03-26T19:06:42.563Z,8.10
2023-03-26T19:09:28.046Z,8.10
2023-03-26T19:11:57.900Z,8.10
2023-03-26T19:14:27.903Z,8.00
2023-03-26T19:16:59.520Z,8.00
2023-03-26T19:19:29.201Z,8.00
2023-03-26T19:21:57.285Z,7.90
2023-03-26T19:24:25.374Z,7.90
2023-03-26T19:26:52.122Z,7.90
2023-03-26T19:29:24.479Z,7.90
2023-03-26T19:31:52.602Z,7.90
2023-03-26T19:34:38.554Z,8.00
2023-03-26T19:37:16.610Z,7.90
2023-03-26T19:39:44.798Z,7.90
2023-03-26T19:42:23.885Z,7.90
2023-03-26T19:44:51.590Z,7.90
2023-03-26T19:47:22.102Z,7.90
2023-03-26T19:50:01.274Z,7.90
2023-03-26T19:52:36.448Z,7.90
2023-03-26T19:55:04.439Z,7.90
2023-03-26T19:57:32.169Z,7.90
2023-03-26T19:59:59.122Z,7.90
2023-03-26T20:02:26.373Z,7.90
2023-03-26T20:04:53.285Z,7.90
2023-03-26T20:07:35.238Z,7.90
2023-03-26T20:10:05.575Z,7.90
2023-03-26T20:12:32.687Z,7.80
2023-03-26T20:14:59.450Z,7.70
2023-03-26T20:17:27.078Z,7.70
2023-03-26T20:19:54.365Z,7.70
2023-03-26T20:22:21.168Z,7.70
2023-03-26T20:24:47.943Z,7.70
2023-03-26T20:27:14.872Z,7.70
2023-03-26T20:29:42.274Z,7.70
2023-03-26T20:32:20.708Z,7.60
2023-03-26T20:34:49.667Z,7.60
2023-03-26T20:37:17.176Z,7.60
2023-03-26T20:39:43.925Z,7.60
2023-03-26T20:42:12.004Z,7.50
2023-03-26T20:44:39.468Z,7.40
2023-03-26T20:47:06.363Z,7.40
2023-03-26T20:49:33.276Z,7.40
2023-03-26T20:52:00.454Z,7.40
2023-03-26T20:54:27.696Z,7.40
2023-03-26T20:56:54.698Z,7.40
2023-03-26T20:59:26.702Z,7.40
2023-03-26T21:01:54.643Z,7.40
2023-03-26T21:04:21.748Z,7.40
2023-03-26T21:06:48.642Z,7.40
2023-03-26T21:09:17.759Z,7.40
2023-03-26T21:11:50.076Z,7.30
2023-03-26T21:14:24.821Z,7.30
2023-03-26T21:16:52.511Z,7.30
2023-03-26T21:19:20.133Z,7.30
2023-03-26T21:21:52.983Z,7.30
2023-03-26T21:24:58.287Z,7.30
2023-03-26T21:27:30.045Z,7.30
2023-03-26T21:29:58.198Z,7.30
2023-03-26T21:32:25.381Z,7.30
2023-03-26T21:34:58.571Z,7.30
2023-03-26T21:37:25.926Z,7.30
2023-03-26T21:39:52.823Z,7.20
2023-03-26T21:42:19.772Z,7.20
2023-03-26T21:44:46.872Z,7.20
2023-03-26T21:47:14.078Z,7.20
2023-03-26T21:49:41.268Z,7.20
2023-03-26T21:52:14.966Z,7.30
2023-03-26T21:54:43.095Z,7.30
2023-03-26T21:57:19.071Z,7.30
2023-03-26T21:59:51.824Z,7.20
2023-03-26T22:02:34.073Z,7.20
2023-03-26T22:05:02.389Z,7.20
2023-03-26T22:07:56.515Z,7.20
2023-03-26T22:10:23.466Z,7.10
2023-03-26T22:12:50.279Z,7.10
2023-03-26T22:15:18.205Z,7.20
2023-03-26T22:17:45.452Z,7.20
2023-03-26T22:20:15.083Z,7.10
2023-03-26T22:22:53.508Z,7.10
2023-03-26T22:25:21.711Z,7.10
2023-03-26T22:27:48.956Z,7.10
2023-03-26T22:30:16.407Z,7.20
2023-03-26T22:32:46.251Z,7.10
2023-03-26T22:35:13.096Z,7.20
2023-03-26T22:37:42.240Z,7.20
2023-03-26T22:40:10.335Z,7.10
2023-03-26T22:42:37.214Z,7.10
2023-03-26T22:45:04.233Z,7.10
2023-03-26T22:47:33.786Z,7.10
2023-03-26T22:50:00.874Z,7.10
2023-03-26T22:52:28.166Z,7.10
2023-03-26T22:54:54.905Z,7.10
2023-03-26T22:57:22.810Z,7.10
2023-03-26T22:59:49.604Z,7.10
2023-03-26T23:02:16.678Z,7.10
2023-03-26T23:04:44.239Z,7.20
2023-03-26T23:07:11.286Z,7.20
2023-03-26T23:09:38.097Z,7.20
2023-03-26T23:12:05.036Z,7.20
2023-03-26T23:14:32.479Z,7.20
2023-03-26T23:16:59.399Z,7.30
2023-03-26T23:19:26.429Z,7.30
2023-03-26T23:21:53.847Z,7.30
2023-03-26T23:24:20.683Z,7.20
2023-03-26T23:26:51.015Z,7.20
2023-03-26T23:29:18.308Z,7.30
2023-03-26T23:31:45.184Z,7.20
2023-03-26T23:34:13.659Z,7.20
2023-03-26T23:36:41.788Z,7.20
2023-03-26T23:39:09.188Z,7.10
2023-03-26T23:41:36.818Z,7.20
2023-03-26T23:44:03.808Z,7.10
2023-03-26T23:46:33.144Z,7.10
2023-03-26T23:49:02.217Z,7.10
2023-03-26T23:51:30.365Z,7.10
2023-03-26T23:53:57.722Z,7.10
2023-03-26T23:56:24.493Z,7.00
2023-03-26T23:58:51.305Z,6.90
